Time;durP1;ratioP1;P1;durP2;ratioP2;P2;SDS_P1;SDS_P2;PMS_P1;PMS_P2;Temp;Humidity;BMP_temperature;BMP_pressure;BME280_temperature;BME280_humidity;BME280_pressure;Samples;Min_cycle;Max_cycle;Signal;HPM_P1;HPM_P2
2022/03/16 00:01:01;;;;;;;;;;;8.80;93.10;;;;;;5051686;28;19948;-66
2022/03/16 00:03:30;;;;;;;;;;;8.80;92.90;;;;;;5047340;28;19929;-66
2022/03/16 00:05:56;;;;;;;;;;;8.80;93.10;;;;;;5050679;28;19932;-66
2022/03/16 00:08:23;;;;;;;;;;;8.80;93.10;;;;;;5049734;28;19924;-66
2022/03/16 00:10:49;;;;;;;;;;;8.80;93.10;;;;;;5049066;28;19931;-66
2022/03/16 00:13:16;;;;;;;;;;;8.80;92.80;;;;;;5040957;28;19925;-66
2022/03/16 00:15:42;;;;;;;;;;;8.80;93.10;;;;;;5044107;28;19936;-66
2022/03/16 00:18:10;;;;;;;;;;;8.80;93.10;;;;;;5045415;28;19940;-66
2022/03/16 00:20:38;;;;;;;;;;;8.70;93.10;;;;;;5045169;28;20998;-66
2022/03/16 00:23:05;;;;;;;;;;;8.80;93.10;;;;;;5049329;28;19932;-66
2022/03/16 00:25:32;;;;;;;;;;;8.70;92.80;;;;;;5047320;28;19929;-66
2022/03/16 00:27:58;;;;;;;;;;;8.80;93.10;;;;;;5044546;28;19971;-66
2022/03/16 00:30:25;;;;;;;;;;;8.70;93.10;;;;;;5048569;28;20401;-66
2022/03/16 00:32:51;;;;;;;;;;;8.70;93.10;;;;;;5045475;28;19936;-66
2022/03/16 00:35:18;;;;;;;;;;;8.70;92.80;;;;;;5044093;28;19929;-66
2022/03/16 00:37:46;;;;;;;;;;;8.70;93.10;;;;;;5046971;28;19924;-66
2022/03/16 00:40:13;;;;;;;;;;;8.70;93.10;;;;;;5046853;28;20047;-66
2022/03/16 00:42:39;;;;;;;;;;;8.70;93.10;;;;;;5053082;28;19928;-66
2022/03/16 00:45:06;;;;;;;;;;;8.70;92.80;;;;;;5042709;28;19928;-67
2022/03/16 00:47:33;;;;;;;;;;;8.70;93.10;;;;;;5044047;28;19929;-66
2022/03/16 00:50:00;;;;;;;;;;;8.70;93.10;;;;;;5040763;28;19929;-66
2022/03/16 00:52:26;;;;;;;;;;;8.70;93.10;;;;;;5042920;28;19928;-66
2022/03/16 00:54:54;;;;;;;;;;;8.70;93.10;;;;;;5043346;28;19924;-66
2022/03/16 00:57:20;;;;;;;;;;;8.70;93.20;;;;;;5050319;28;19933;-66
2022/03/16 00:59:47;;;;;;;;;;;8.70;93.20;;;;;;5047385;28;19928;-66
2022/03/16 01:02:14;;;;;;;;;;;8.70;93.20;;;;;;5049560;28;19932;-66
2022/03/16 01:04:40;;;;;;;;;;;8.70;93.10;;;;;;5046302;28;21094;-66
2022/03/16 01:07:07;;;;;;;;;;;8.70;93.10;;;;;;5046861;28;19936;-66
2022/03/16 01:09:34;;;;;;;;;;;8.70;93.10;;;;;;5047791;28;19936;-66
2022/03/16 01:12:03;;;;;;;;;;;8.60;93.10;;;;;;5048841;28;19928;-67
2022/03/16 01:14:30;;;;;;;;;;;8.70;93.10;;;;;;5044582;28;20272;-66
2022/03/16 01:16:56;;;;;;;;;;;8.60;93.10;;;;;;5046786;28;19937;-66
2022/03/16 01:19:23;;;;;;;;;;;8.60;93.10;;;;;;5040418;28;19936;-66
2022/03/16 01:21:49;;;;;;;;;;;8.60;93.10;;;;;;5044211;28;19929;-66
2022/03/16 01:24:16;;;;;;;;;;;8.60;93.10;;;;;;5042314;28;19925;-66
2022/03/16 01:26:43;;;;;;;;;;;8.60;93.10;;;;;;5049465;28;20390;-66
2022/03/16 01:29:10;;;;;;;;;;;8.60;93.10;;;;;;5044284;28;19932;-66
2022/03/16 01:31:37;;;;;;;;;;;8.60;93.10;;;;;;5047557;28;19940;-66
2022/03/16 01:34:04;;;;;;;;;;;8.60;93.10;;;;;;5046981;28;19943;-66
2022/03/16 01:36:30;;;;;;;;;;;8.60;93.10;;;;;;5046961;28;20408;-66
2022/03/16 01:38:57;;;;;;;;;;;8.60;93.10;;;;;;5048414;28;19936;-66
2022/03/16 01:41:23;;;;;;;;;;;8.60;93.10;;;;;;5046510;28;20607;-66
2022/03/16 01:43:53;;;;;;;;;;;8.60;92.80;;;;;;5048035;28;19936;-66
2022/03/16 01:46:21;;;;;;;;;;;10.30;93.60;;;;;;5050637;28;19942;-66
2022/03/16 01:48:47;;;;;;;;;;;8.60;93.10;;;;;;5048186;28;20021;-66
2022/03/16 01:51:14;;;;;;;;;;;8.60;93.10;;;;;;5052984;28;19937;-67
2022/03/16 01:53:41;;;;;;;;;;;8.60;92.80;;;;;;5046868;28;19928;-66
2022/03/16 01:56:08;;;;;;;;;;;8.60;93.10;;;;;;5050481;28;19936;-66
2022/03/16 01:58:35;;;;;;;;;;;8.60;93.10;;;;;;5046988;28;19928;-66
2022/03/16 02:01:02;;;;;;;;;;;8.60;93.10;;;;;;5048911;28;20052;-65
2022/03/16 02:03:30;;;;;;;;;;;8.60;92.80;;;;;;5051715;28;19928;-66
2022/03/16 02:05:56;;;;;;;;;;;8.60;93.10;;;;;;5049084;28;19940;-66
2022/03/16 02:08:23;;;;;;;;;;;8.60;93.10;;;;;;5048533;28;19954;-66
2022/03/16 02:10:49;;;;;;;;;;;8.60;93.10;;;;;;5051303;28;19966;-67
2022/03/16 02:13:16;;;;;;;;;;;8.50;92.80;;;;;;5046148;28;19995;-66
2022/03/16 02:15:42;;;;;;;;;;;8.80;93.20;;;;;;5043537;28;19933;-66
2022/03/16 02:18:09;;;;;;;;;;;8.60;93.10;;;;;;5049041;28;20134;-67
2022/03/16 02:20:37;;;;;;;;;;;8.50;93.10;;;;;;5050680;28;19939;-66
2022/03/16 02:23:05;;;;;;;;;;;8.50;93.00;;;;;;5049032;28;20019;-66
2022/03/16 02:25:32;;;;;;;;;;;8.50;92.80;;;;;;5050076;28;20285;-66
2022/03/16 02:27:59;;;;;;;;;;;8.50;93.10;;;;;;5047468;28;19925;-66
2022/03/16 02:30:27;;;;;;;;;;;8.50;93.00;;;;;;5050507;28;19925;-66
2022/03/16 02:32:54;;;;;;;;;;;8.50;93.10;;;;;;5050948;28;20569;-66
2022/03/16 02:35:22;;;;;;;;;;;8.50;93.40;;;;;;5047445;28;19936;-66
2022/03/16 02:37:49;;;;;;;;;;;8.50;93.10;;;;;;5051599;28;19940;-66
2022/03/16 02:40:19;;;;;;;;;;;8.50;93.10;;;;;;5049561;28;19939;-67
2022/03/16 02:42:46;;;;;;;;;;;8.50;93.10;;;;;;5048094;28;19928;-66
2022/03/16 02:45:12;;;;;;;;;;;8.50;92.80;;;;;;5049815;28;19929;-66
2022/03/16 02:47:40;;;;;;;;;;;8.50;93.10;;;;;;5053318;28;19986;-66
2022/03/16 02:50:07;;;;;;;;;;;8.50;93.10;;;;;;5053259;28;20032;-67
2022/03/16 02:52:33;;;;;;;;;;;8.50;93.10;;;;;;5049923;28;19933;-66
2022/03/16 02:55:00;;;;;;;;;;;8.50;92.80;;;;;;5043437;28;19933;-66
2022/03/16 02:57:28;;;;;;;;;;;8.50;93.10;;;;;;5041955;28;19936;-66
2022/03/16 02:59:55;;;;;;;;;;;8.50;93.10;;;;;;5044156;28;20047;-66
2022/03/16 03:02:22;;;;;;;;;;;8.50;93.10;;;;;;5041391;28;20032;-66
2022/03/16 03:04:48;;;;;;;;;;;8.40;92.80;;;;;;5045006;28;19929;-67
2022/03/16 03:07:15;;;;;;;;;;;8.40;93.10;;;;;;5050109;28;19929;-66
2022/03/16 03:09:42;;;;;;;;;;;8.40;93.10;;;;;;5048372;28;19929;-66
2022/03/16 03:12:09;;;;;;;;;;;8.50;93.10;;;;;;5051126;28;19940;-65
2022/03/16 03:14:37;;;;;;;;;;;8.40;92.80;;;;;;5049439;28;19929;-66
2022/03/16 03:17:04;;;;;;;;;;;8.40;93.10;;;;;;5054104;28;19928;-66
2022/03/16 03:19:30;;;;;;;;;;;8.50;93.10;;;;;;5046597;28;19936;-66
2022/03/16 03:21:57;;;;;;;;;;;8.40;93.10;;;;;;5048481;28;20023;-66
2022/03/16 03:24:23;;;;;;;;;;;8.40;93.00;;;;;;5051285;28;19940;-66
2022/03/16 03:26:50;;;;;;;;;;;8.40;93.10;;;;;;5048801;28;19928;-66
2022/03/16 03:29:17;;;;;;;;;;;8.40;93.10;;;;;;5045077;28;19928;-66
2022/03/16 03:31:45;;;;;;;;;;;8.40;93.10;;;;;;5046311;28;19936;-66
2022/03/16 03:34:12;;;;;;;;;;;8.40;92.80;;;;;;5046235;28;20411;-66
2022/03/16 03:36:38;;;;;;;;;;;8.40;93.10;;;;;;5044676;28;20440;-66
2022/03/16 03:39:05;;;;;;;;;;;8.40;93.10;;;;;;5045290;28;19928;-66
2022/03/16 03:41:32;;;;;;;;;;;8.40;93.10;;;;;;5046403;28;20424;-65
2022/03/16 03:43:59;;;;;;;;;;;8.40;92.80;;;;;;5050357;28;19929;-65
2022/03/16 03:46:25;;;;;;;;;;;8.40;93.10;;;;;;5050038;28;20012;-66
2022/03/16 03:48:53;;;;;;;;;;;8.40;93.10;;;;;;5046648;28;20393;-66
2022/03/16 03:51:20;;;;;;;;;;;8.40;93.10;;;;;;5046556;28;20695;-66
2022/03/16 03:53:47;;;;;;;;;;;8.40;93.20;;;;;;5047243;28;19959;-66
2022/03/16 03:56:13;;;;;;;;;;;8.40;93.50;;;;;;5050013;28;19929;-65
2022/03/16 03:58:40;;;;;;;;;;;8.30;93.10;;;;;;5047397;28;19929;-65
2022/03/16 04:01:06;;;;;;;;;;;8.30;93.10;;;;;;5049097;28;20300;-66
2022/03/16 04:03:33;;;;;;;;;;;8.30;93.20;;;;;;5046660;28;19929;-66
2022/03/16 04:06:01;;;;;;;;;;;8.40;93.20;;;;;;5048116;28;19944;-66
2022/03/16 04:08:28;;;;;;;;;;;8.40;93.20;;;;;;5047278;28;19928;-65
2022/03/16 04:10:54;;;;;;;;;;;8.40;93.20;;;;;;5049745;28;19928;-66
2022/03/16 04:13:21;;;;;;;;;;;8.30;93.20;;;;;;5050204;28;19929;-66
2022/03/16 04:15:47;;;;;;;;;;;8.30;93.20;;;;;;5050844;28;19936;-67
2022/03/16 04:18:14;;;;;;;;;;;8.30;93.20;;;;;;5047635;28;19933;-65
2022/03/16 04:20:40;;;;;;;;;;;8.30;93.20;;;;;;5047079;28;20389;-66
2022/03/16 04:23:08;;;;;;;;;;;8.30;93.20;;;;;;5053221;28;20408;-66
2022/03/16 04:25:35;;;;;;;;;;;8.30;93.20;;;;;;5046870;28;19940;-66
2022/03/16 04:28:01;;;;;;;;;;;8.30;93.30;;;;;;5045288;28;19928;-65
2022/03/16 04:30:28;;;;;;;;;;;8.30;93.30;;;;;;5045145;28;19936;-66
2022/03/16 04:32:55;;;;;;;;;;;8.30;93.30;;;;;;5045515;28;19929;-66
2022/03/16 04:35:21;;;;;;;;;;;8.30;93.30;;;;;;5044935;28;19933;-66
2022/03/16 04:37:48;;;;;;;;;;;8.30;93.30;;;;;;5046876;28;19929;-66
2022/03/16 04:40:16;;;;;;;;;;;8.20;93.30;;;;;;5045753;28;19934;-66
2022/03/16 04:42:42;;;;;;;;;;;8.30;93.30;;;;;;5047843;28;19955;-66
2022/03/16 04:45:10;;;;;;;;;;;8.20;93.30;;;;;;5049379;28;19936;-66
2022/03/16 04:47:36;;;;;;;;;;;8.20;93.30;;;;;;5048824;28;19940;-66
2022/03/16 04:50:03;;;;;;;;;;;8.30;93.40;;;;;;5046449;28;19940;-66
2022/03/16 04:52:31;;;;;;;;;;;8.20;93.40;;;;;;5046706;28;19932;-66
2022/03/16 04:54:57;;;;;;;;;;;8.20;93.10;;;;;;5044909;28;20741;-66
2022/03/16 04:57:25;;;;;;;;;;;8.20;93.40;;;;;;5050568;28;19928;-67
2022/03/16 04:59:52;;;;;;;;;;;8.20;93.40;;;;;;5044251;28;19932;-66
2022/03/16 05:02:18;;;;;;;;;;;8.20;93.40;;;;;;5043772;28;19939;-65
2022/03/16 05:04:45;;;;;;;;;;;8.20;93.40;;;;;;5043787;28;19939;-66
2022/03/16 05:07:11;;;;;;;;;;;8.20;93.50;;;;;;5046205;28;20297;-65
2022/03/16 05:09:38;;;;;;;;;;;8.20;93.40;;;;;;5044951;28;19940;-65
2022/03/16 05:12:05;;;;;;;;;;;8.20;93.40;;;;;;5048178;28;19928;-66
2022/03/16 05:14:33;;;;;;;;;;;8.10;93.40;;;;;;5039056;28;19932;-66
2022/03/16 05:16:59;;;;;;;;;;;8.20;93.40;;;;;;5040481;28;19932;-66
2022/03/16 05:19:26;;;;;;;;;;;8.10;93.40;;;;;;5037871;28;20324;-66
2022/03/16 05:21:52;;;;;;;;;;;8.10;93.40;;;;;;5044308;28;20106;-66
2022/03/16 05:24:22;;;;;;;;;;;8.10;93.40;;;;;;5048127;28;19929;-66
2022/03/16 05:26:48;;;;;;;;;;;8.10;93.30;;;;;;5046018;28;20423;-66
2022/03/16 05:29:15;;;;;;;;;;;8.10;93.30;;;;;;5043853;28;19932;-66
2022/03/16 05:31:43;;;;;;;;;;;8.10;93.40;;;;;;5045770;28;19932;-66
2022/03/16 05:34:09;;;;;;;;;;;8.00;93.10;;;;;;5044415;28;19967;-66
2022/03/16 05:36:37;;;;;;;;;;;8.10;93.40;;;;;;5047004;28;19958;-66
2022/03/16 05:39:04;;;;;;;;;;;8.00;93.40;;;;;;5046688;28;20526;-65
2022/03/16 05:41:31;;;;;;;;;;;8.00;93.40;;;;;;5045600;28;19929;-66
2022/03/16 05:43:58;;;;;;;;;;;8.00;93.10;;;;;;5048363;28;19928;-65
2022/03/16 05:46:24;;;;;;;;;;;8.00;93.40;;;;;;5043540;28;19929;-66
2022/03/16 05:48:52;;;;;;;;;;;8.00;93.40;;;;;;5045468;28;19951;-66
2022/03/16 05:51:19;;;;;;;;;;;8.00;93.40;;;;;;5047257;28;19939;-66
2022/03/16 05:53:45;;;;;;;;;;;8.00;93.10;;;;;;5044080;28;19933;-66
2022/03/16 05:56:12;;;;;;;;;;;8.00;93.40;;;;;;5047792;28;19943;-65
2022/03/16 05:58:38;;;;;;;;;;;8.00;93.30;;;;;;5046745;28;19940;-66
2022/03/16 06:01:05;;;;;;;;;;;8.00;93.30;;;;;;5049585;28;20316;-66
2022/03/16 06:03:31;;;;;;;;;;;7.90;93.00;;;;;;5046802;28;20388;-66
2022/03/16 06:06:00;;;;;;;;;;;8.10;93.20;;;;;;5045469;28;20397;-66
2022/03/16 06:08:26;;;;;;;;;;;7.90;93.30;;;;;;5041755;28;19983;-66
2022/03/16 06:10:53;;;;;;;;;;;7.90;93.30;;;;;;5044428;28;19940;-66
2022/03/16 06:13:19;;;;;;;;;;;7.80;93.00;;;;;;5046058;28;19929;-66
2022/03/16 06:15:46;;;;;;;;;;;7.80;93.30;;;;;;5043469;28;19928;-66
2022/03/16 06:18:12;;;;;;;;;;;7.80;93.30;;;;;;5042220;28;19936;-66
2022/03/16 06:20:39;;;;;;;;;;;7.80;93.30;;;;;;5042471;28;19935;-67
2022/03/16 06:23:08;;;;;;;;;;;7.80;93.30;;;;;;5046885;28;19936;-66
2022/03/16 06:25:35;;;;;;;;;;;7.80;93.10;;;;;;5043879;28;20018;-67
2022/03/16 06:28:02;;;;;;;;;;;7.80;93.30;;;;;;5039854;28;19935;-66
2022/03/16 06:30:28;;;;;;;;;;;7.80;93.30;;;;;;5042302;28;19925;-66
2022/03/16 06:32:55;;;;;;;;;;;7.80;93.30;;;;;;5043931;28;19933;-66
2022/03/16 06:35:21;;;;;;;;;;;7.80;93.00;;;;;;5047764;28;19944;-66
2022/03/16 06:37:48;;;;;;;;;;;7.80;93.30;;;;;;5042573;28;19933;-67
2022/03/16 06:40:16;;;;;;;;;;;7.80;93.20;;;;;;5051092;28;19933;-67
2022/03/16 06:42:47;;;;;;;;;;;7.80;93.20;;;;;;5051481;28;19929;-67
2022/03/16 06:45:13;;;;;;;;;;;7.80;92.90;;;;;;5048796;28;19939;-67
2022/03/16 06:47:40;;;;;;;;;;;7.80;93.20;;;;;;5052641;28;19925;-67
2022/03/16 06:50:06;;;;;;;;;;;7.80;93.20;;;;;;5047539;28;19939;-67
2022/03/16 06:52:33;;;;;;;;;;;7.80;93.50;;;;;;5052638;28;19928;-67
2022/03/16 06:55:00;;;;;;;;;;;7.70;92.90;;;;;;5049595;28;19936;-66
2022/03/16 06:57:28;;;;;;;;;;;7.80;93.20;;;;;;5051420;28;19936;-66
2022/03/16 06:59:54;;;;;;;;;;;7.70;93.20;;;;;;5047633;28;19970;-67
2022/03/16 07:02:21;;;;;;;;;;;7.70;93.10;;;;;;5047725;28;19963;-66
2022/03/16 07:04:47;;;;;;;;;;;7.70;92.90;;;;;;5044787;28;20517;-67
2022/03/16 07:07:14;;;;;;;;;;;7.70;93.10;;;;;;5047789;28;20539;-67
2022/03/16 07:09:40;;;;;;;;;;;7.70;93.10;;;;;;5046661;28;19924;-67
2022/03/16 07:12:08;;;;;;;;;;;7.70;93.10;;;;;;5054531;28;20404;-66
2022/03/16 07:14:35;;;;;;;;;;;7.70;92.80;;;;;;5046080;28;19929;-67
2022/03/16 07:17:02;;;;;;;;;;;7.70;93.10;;;;;;5048222;28;19936;-66
2022/03/16 07:19:29;;;;;;;;;;;7.80;93.40;;;;;;5043017;28;19932;-66
2022/03/16 07:21:58;;;;;;;;;;;7.70;93.10;;;;;;5045708;28;19932;-66
2022/03/16 07:24:25;;;;;;;;;;;7.70;92.80;;;;;;5046664;28;19975;-67
2022/03/16 07:26:52;;;;;;;;;;;7.70;93.00;;;;;;5042733;28;20183;-66
2022/03/16 07:29:19;;;;;;;;;;;7.70;93.10;;;;;;5044017;28;19996;-66
2022/03/16 07:31:47;;;;;;;;;;;7.80;93.10;;;;;;5045491;28;20445;-67
2022/03/16 07:34:14;;;;;;;;;;;7.70;92.80;;;;;;5042467;28;19934;-67
2022/03/16 07:36:40;;;;;;;;;;;7.70;93.00;;;;;;5045114;28;19925;-67
2022/03/16 07:39:07;;;;;;;;;;;7.70;93.00;;;;;;5051108;28;19929;-67
2022/03/16 07:41:33;;;;;;;;;;;7.70;93.00;;;;;;5046430;28;19929;-67
2022/03/16 07:44:00;;;;;;;;;;;7.70;92.70;;;;;;5045994;28;19929;-67
2022/03/16 07:46:27;;;;;;;;;;;7.70;93.00;;;;;;5045686;28;19990;-67
2022/03/16 07:48:55;;;;;;;;;;;7.70;93.00;;;;;;5043867;28;19936;-67
2022/03/16 07:51:21;;;;;;;;;;;7.70;93.00;;;;;;5044406;28;19928;-67
2022/03/16 07:53:48;;;;;;;;;;;7.70;92.70;;;;;;5046380;28;19933;-67
2022/03/16 07:56:14;;;;;;;;;;;7.70;93.00;;;;;;5052169;28;19935;-67
2022/03/16 07:58:42;;;;;;;;;;;8.00;93.10;;;;;;5043792;28;19937;-67
2022/03/16 08:01:09;;;;;;;;;;;7.70;93.00;;;;;;5048158;28;20007;-66
2022/03/16 08:03:35;;;;;;;;;;;7.70;92.70;;;;;;5041886;28;19951;-67
2022/03/16 08:06:04;;;;;;;;;;;7.70;93.00;;;;;;5045146;28;20396;-66
2022/03/16 08:08:31;;;;;;;;;;;7.70;93.00;;;;;;5043656;28;19929;-67
2022/03/16 08:10:58;;;;;;;;;;;7.90;93.10;;;;;;5050937;28;19955;-66
2022/03/16 08:13:25;;;;;;;;;;;7.70;92.70;;;;;;5039081;28;19932;-66
2022/03/16 08:15:51;;;;;;;;;;;7.70;93.00;;;;;;5045840;28;19933;-67
2022/03/16 08:18:18;;;;;;;;;;;7.70;93.00;;;;;;5043538;28;19925;-67
2022/03/16 08:20:44;;;;;;;;;;;7.70;93.00;;;;;;5047248;28;20300;-67
2022/03/16 08:23:13;;;;;;;;;;;7.80;92.80;;;;;;5044757;28;20336;-66
2022/03/16 08:25:40;;;;;;;;;;;7.70;93.00;;;;;;5044232;28;19952;-67
2022/03/16 08:28:06;;;;;;;;;;;7.70;93.00;;;;;;5043162;28;19925;-67
2022/03/16 08:30:34;;;;;;;;;;;7.70;93.00;;;;;;5043487;28;19929;-67
2022/03/16 08:33:01;;;;;;;;;;;7.80;93.00;;;;;;5042283;28;20043;-67
2022/03/16 08:35:27;;;;;;;;;;;7.80;92.80;;;;;;5041389;28;19943;-67
2022/03/16 08:37:54;;;;;;;;;;;7.80;93.40;;;;;;5048433;28;19929;-67
2022/03/16 08:40:22;;;;;;;;;;;7.80;93.00;;;;;;5045367;28;20421;-67
2022/03/16 08:42:49;;;;;;;;;;;7.80;93.00;;;;;;5045153;28;19936;-67
2022/03/16 08:45:16;;;;;;;;;;;7.80;92.80;;;;;;5042585;28;19937;-67
2022/03/16 08:47:43;;;;;;;;;;;7.80;93.10;;;;;;5041793;28;20024;-67
2022/03/16 08:50:10;;;;;;;;;;;7.80;93.10;;;;;;5051256;28;20356;-66
2022/03/16 08:52:36;;;;;;;;;;;7.80;93.10;;;;;;5052325;28;19928;-67
2022/03/16 08:55:05;;;;;;;;;;;7.80;92.90;;;;;;5049924;28;20344;-67
2022/03/16 08:57:33;;;;;;;;;;;7.80;93.10;;;;;;5044784;28;19971;-67
2022/03/16 08:59:59;;;;;;;;;;;7.80;93.10;;;;;;5048709;28;20756;-67
2022/03/16 09:02:26;;;;;;;;;;;7.80;93.10;;;;;;5055956;28;20681;-69
2022/03/16 09:04:53;;;;;;;;;;;7.90;92.90;;;;;;5039939;28;19936;-67
2022/03/16 09:07:19;;;;;;;;;;;7.90;93.20;;;;;;5046754;28;20016;-66
2022/03/16 09:09:46;;;;;;;;;;;7.90;93.30;;;;;;5045636;28;19932;-68
2022/03/16 09:12:12;;;;;;;;;;;7.90;93.30;;;;;;5044980;28;19929;-67
2022/03/16 09:14:40;;;;;;;;;;;7.90;93.10;;;;;;5043406;28;20713;-66
2022/03/16 09:17:07;;;;;;;;;;;8.00;93.40;;;;;;5045993;28;19951;-66
2022/03/16 09:19:34;;;;;;;;;;;8.00;93.40;;;;;;5039241;28;19929;-67
2022/03/16 09:22:02;;;;;;;;;;;8.00;93.40;;;;;;5049362;28;20346;-67
2022/03/16 09:24:29;;;;;;;;;;;8.00;93.10;;;;;;5043705;28;19929;-66
2022/03/16 09:26:59;;;;;;;;;;;8.00;93.40;;;;;;5043779;28;19933;-67
2022/03/16 09:29:26;;;;;;;;;;;8.00;93.40;;;;;;5041603;28;19935;-67
2022/03/16 09:31:54;;;;;;;;;;;8.10;93.50;;;;;;5043303;28;19929;-67
2022/03/16 09:34:21;;;;;;;;;;;8.10;93.20;;;;;;5036647;28;19991;-66
2022/03/16 09:36:48;;;;;;;;;;;8.10;93.50;;;;;;5042944;28;19929;-66
2022/03/16 09:39:14;;;;;;;;;;;8.10;93.50;;;;;;5051638;28;19928;-67
2022/03/16 09:41:41;;;;;;;;;;;8.10;93.40;;;;;;5048888;28;19933;-67
2022/03/16 09:44:07;;;;;;;;;;;8.20;93.20;;;;;;5046317;28;19928;-67
2022/03/16 09:46:35;;;;;;;;;;;8.20;93.40;;;;;;5044582;28;19936;-67
2022/03/16 09:49:03;;;;;;;;;;;8.20;93.40;;;;;;5039485;28;20237;-67
2022/03/16 09:51:34;;;;;;;;;;;8.20;93.50;;;;;;5049100;28;20022;-67
2022/03/16 09:54:01;;;;;;;;;;;8.30;93.30;;;;;;5043315;28;19929;-67
2022/03/16 09:56:27;;;;;;;;;;;8.30;93.60;;;;;;5040685;28;20005;-67
2022/03/16 09:58:54;;;;;;;;;;;8.30;93.50;;;;;;5038589;28;19929;-67
2022/03/16 10:01:20;;;;;;;;;;;8.40;93.50;;;;;;5044781;28;20301;-67
2022/03/16 10:03:48;;;;;;;;;;;8.40;93.50;;;;;;5044726;28;20486;-67
2022/03/16 10:06:17;;;;;;;;;;;8.40;93.40;;;;;;5046852;28;19933;-67
2022/03/16 10:13:13;;;;;;;;;;;8.50;93.50;;;;;;5042691;28;19955;-67
2022/03/16 10:14:15;;;;;;;;;;;8.60;93.10;;;;;;5043549;28;19973;-66
2022/03/16 10:19:48;;;;;;;;;;;8.60;93.20;;;;;;5040785;28;19932;-67
2022/03/16 10:22:22;;;;;;;;;;;8.70;93.30;;;;;;5054159;28;19932;-67
2022/03/16 10:24:50;;;;;;;;;;;8.70;93.00;;;;;;5048675;28;20038;-67
2022/03/16 10:27:18;;;;;;;;;;;8.80;93.30;;;;;;5048905;28;19936;-67
2022/03/16 10:29:46;;;;;;;;;;;8.80;93.30;;;;;;5047411;28;19929;-67
2022/03/16 10:32:13;;;;;;;;;;;8.80;93.30;;;;;;5047927;28;20428;-67
2022/03/16 10:34:48;;;;;;;;;;;8.90;93.00;;;;;;5039543;28;20058;-66
2022/03/16 10:37:20;;;;;;;;;;;8.90;93.20;;;;;;5046983;28;20350;-68
2022/03/16 10:39:47;;;;;;;;;;;8.90;93.10;;;;;;5048000;28;19937;-66
2022/03/16 10:47:57;;;;;;;;;;;9.10;93.10;;;;;;5040544;28;19932;-67
2022/03/16 10:50:23;;;;;;;;;;;9.20;93.00;;;;;;5049347;28;19932;-67
2022/03/16 10:52:51;;;;;;;;;;;9.20;93.00;;;;;;5053590;28;19936;-67
2022/03/16 10:55:19;;;;;;;;;;;9.20;92.60;;;;;;5050828;28;19929;-67
2022/03/16 10:57:47;;;;;;;;;;;9.30;92.80;;;;;;5044803;28;20401;-67
2022/03/16 11:00:15;;;;;;;;;;;9.40;92.40;;;;;;5044159;28;19936;-67
2022/03/16 11:02:43;;;;;;;;;;;9.40;92.70;;;;;;5045966;28;19934;-67
2022/03/16 11:05:11;;;;;;;;;;;9.50;92.40;;;;;;5046200;28;20460;-66
2022/03/16 11:07:39;;;;;;;;;;;9.50;92.60;;;;;;5046389;28;19978;-67
2022/03/16 11:10:07;;;;;;;;;;;9.60;92.60;;;;;;5045254;28;20583;-68
2022/03/16 11:15:20;;;;;;;;;;;9.60;92.30;;;;;;5047045;28;20063;-67
2022/03/16 11:17:46;;;;;;;;;;;9.70;92.50;;;;;;5048488;28;19952;-68
2022/03/16 11:20:13;;;;;;;;;;;9.80;92.40;;;;;;5047506;28;19952;-67
2022/03/16 11:24:15;;;;;;;;;;;9.80;92.40;;;;;;5047623;28;20007;-68
2022/03/16 11:25:38;;;;;;;;;;;9.80;92.00;;;;;;5046571;28;19929;-68
2022/03/16 11:28:07;;;;;;;;;;;9.90;92.20;;;;;;5035014;28;19936;-67
2022/03/16 11:30:36;;;;;;;;;;;10.00;92.10;;;;;;5044159;28;19951;-67
2022/03/16 11:33:04;;;;;;;;;;;10.00;92.10;;;;;;5041808;28;19982;-68
2022/03/16 11:35:32;;;;;;;;;;;10.00;91.80;;;;;;5042363;28;19933;-67
2022/03/16 11:38:00;;;;;;;;;;;10.10;92.10;;;;;;5047653;28;19929;-67
2022/03/16 11:40:27;;;;;;;;;;;10.10;92.00;;;;;;5049625;28;19932;-67
2022/03/16 11:43:13;;;;;;;;;;;10.20;92.00;;;;;;5042771;28;20412;-68
2022/03/16 11:45:41;;;;;;;;;;;10.20;91.90;;;;;;5053517;28;20044;-67
2022/03/16 11:48:27;;;;;;;;;;;10.20;92.20;;;;;;5044839;28;19979;-68
2022/03/16 11:51:12;;;;;;;;;;;10.20;91.80;;;;;;5049018;28;20298;-68
2022/03/16 11:54:05;;;;;;;;;;;10.20;91.60;;;;;;5048199;28;19982;-68
2022/03/16 11:56:42;;;;;;;;;;;10.30;91.90;;;;;;5051363;28;19962;-67
2022/03/16 11:59:10;;;;;;;;;;;10.30;91.90;;;;;;5044119;28;20348;-68
2022/03/16 12:01:38;;;;;;;;;;;10.30;91.80;;;;;;5054671;28;19972;-67
2022/03/16 12:04:15;;;;;;;;;;;10.40;91.50;;;;;;5039341;28;19936;-68
2022/03/16 12:06:48;;;;;;;;;;;10.40;91.80;;;;;;5043759;28;19932;-68
2022/03/16 12:09:18;;;;;;;;;;;10.40;91.70;;;;;;5044945;28;19944;-68
2022/03/16 12:15:01;;;;;;;;;;;10.60;91.50;;;;;;5045734;28;19982;-67
2022/03/16 12:17:29;;;;;;;;;;;10.60;91.70;;;;;;5039680;28;20888;-68
2022/03/16 12:20:09;;;;;;;;;;;10.60;91.60;;;;;;5039486;28;19944;-67
2022/03/16 12:22:37;;;;;;;;;;;10.70;91.60;;;;;;5045201;28;19929;-68
2022/03/16 12:25:22;;;;;;;;;;;10.70;91.40;;;;;;5045258;28;19964;-68
2022/03/16 12:30:37;;;;;;;;;;;10.80;91.60;;;;;;5045109;28;19931;-68
2022/03/16 12:33:05;;;;;;;;;;;10.80;91.50;;;;;;5043571;28;20617;-68
2022/03/16 12:35:34;;;;;;;;;;;10.80;91.20;;;;;;5048446;28;20503;-68
2022/03/16 12:38:01;;;;;;;;;;;10.80;91.50;;;;;;5048881;28;19928;-68
2022/03/16 12:40:29;;;;;;;;;;;10.80;91.40;;;;;;5049366;28;19940;-68
2022/03/16 12:42:56;;;;;;;;;;;10.90;91.40;;;;;;5046235;28;19937;-68
2022/03/16 12:45:25;;;;;;;;;;;10.90;91.20;;;;;;5047581;28;20609;-67
2022/03/16 12:47:58;;;;;;;;;;;10.90;91.50;;;;;;5050498;28;19935;-68
2022/03/16 12:50:28;;;;;;;;;;;10.90;91.50;;;;;;5046439;28;20297;-69
2022/03/16 12:52:55;;;;;;;;;;;11.00;91.50;;;;;;5050273;28;20035;-68
2022/03/16 12:55:21;;;;;;;;;;;11.00;91.20;;;;;;5055087;28;19928;-68
2022/03/16 12:57:55;;;;;;;;;;;11.00;91.50;;;;;;5046866;28;20134;-68
2022/03/16 13:00:21;;;;;;;;;;;11.00;91.40;;;;;;5050550;28;20011;-68
2022/03/16 13:02:50;;;;;;;;;;;11.00;91.40;;;;;;5046891;28;19929;-67
2022/03/16 13:05:20;;;;;;;;;;;11.10;91.10;;;;;;5044953;28;19929;-69
2022/03/16 13:07:48;;;;;;;;;;;11.10;91.30;;;;;;5043339;28;19928;-68
2022/03/16 13:10:14;;;;;;;;;;;11.10;91.30;;;;;;5046721;28;20428;-68
2022/03/16 13:12:56;;;;;;;;;;;11.10;91.30;;;;;;5041518;28;19933;-68
2022/03/16 13:15:26;;;;;;;;;;;11.10;91.00;;;;;;5046563;28;19933;-68
2022/03/16 13:17:55;;;;;;;;;;;11.20;91.20;;;;;;5046601;28;19937;-67
2022/03/16 13:20:23;;;;;;;;;;;11.20;91.20;;;;;;5049206;28;20400;-68
2022/03/16 13:22:51;;;;;;;;;;;11.20;91.10;;;;;;5047036;28;20535;-68
2022/03/16 13:25:17;;;;;;;;;;;11.20;91.10;;;;;;5047329;28;19929;-68
2022/03/16 13:27:51;;;;;;;;;;;11.30;91.10;;;;;;5042123;28;19933;-68
2022/03/16 13:30:21;;;;;;;;;;;11.30;91.10;;;;;;5045965;28;19964;-68
2022/03/16 13:32:51;;;;;;;;;;;11.30;91.00;;;;;;5042453;28;19928;-67
2022/03/16 13:35:21;;;;;;;;;;;11.30;90.70;;;;;;5043483;28;19952;-68
2022/03/16 13:37:48;;;;;;;;;;;11.30;91.00;;;;;;5048999;28;19968;-68
2022/03/16 13:40:18;;;;;;;;;;;11.40;91.00;;;;;;5054424;28;19936;-68
2022/03/16 13:42:46;;;;;;;;;;;11.40;90.90;;;;;;5053496;28;19928;-68
2022/03/16 13:45:14;;;;;;;;;;;11.40;90.60;;;;;;5054112;28;20012;-68
2022/03/16 13:47:42;;;;;;;;;;;11.40;90.80;;;;;;5051055;28;19971;-68
2022/03/16 13:50:17;;;;;;;;;;;11.50;90.80;;;;;;5052150;28;20026;-68
2022/03/16 13:52:45;;;;;;;;;;;11.50;90.80;;;;;;5052604;28;19928;-68
2022/03/16 13:55:12;;;;;;;;;;;11.50;90.80;;;;;;5054081;28;19935;-68
2022/03/16 13:57:43;;;;;;;;;;;11.50;90.70;;;;;;5050001;28;19994;-67
2022/03/16 14:00:10;;;;;;;;;;;11.60;90.70;;;;;;5051180;28;20177;-68
2022/03/16 14:02:37;;;;;;;;;;;11.60;90.70;;;;;;5052211;28;19928;-68
2022/03/16 14:05:06;;;;;;;;;;;11.60;90.70;;;;;;5041319;28;20020;-68
2022/03/16 14:07:34;;;;;;;;;;;11.60;90.70;;;;;;5047117;28;19939;-69
2022/03/16 14:10:01;;;;;;;;;;;11.60;90.70;;;;;;5046361;28;20020;-68
2022/03/16 14:12:32;;;;;;;;;;;11.60;90.70;;;;;;5052044;28;20476;-68
2022/03/16 14:15:16;;;;;;;;;;;11.70;90.70;;;;;;5047897;28;19959;-68
2022/03/16 14:17:47;;;;;;;;;;;11.70;90.70;;;;;;5046579;28;19932;-68
2022/03/16 14:20:14;;;;;;;;;;;11.70;90.60;;;;;;5048920;28;20087;-68
2022/03/16 14:22:42;;;;;;;;;;;11.70;90.60;;;;;;5047874;28;20312;-67
2022/03/16 14:25:15;;;;;;;;;;;11.70;90.60;;;;;;5046996;28;19972;-68
2022/03/16 14:27:42;;;;;;;;;;;11.70;90.60;;;;;;5039101;28;20011;-68
2022/03/16 14:30:11;;;;;;;;;;;11.70;90.60;;;;;;5047838;28;19929;-68
2022/03/16 14:32:38;;;;;;;;;;;11.80;90.60;;;;;;5045309;28;20014;-68
2022/03/16 14:35:05;;;;;;;;;;;11.80;90.50;;;;;;5049670;28;19929;-67
2022/03/16 14:37:32;;;;;;;;;;;11.80;90.50;;;;;;5049530;28;19935;-67
2022/03/16 14:39:59;;;;;;;;;;;11.80;90.50;;;;;;5052802;28;20442;-67
2022/03/16 14:42:26;;;;;;;;;;;11.80;90.80;;;;;;5049064;28;19967;-68
2022/03/16 14:44:53;;;;;;;;;;;11.80;90.40;;;;;;5054030;28;19935;-68
2022/03/16 14:47:21;;;;;;;;;;;11.80;90.40;;;;;;5047654;28;20135;-68
2022/03/16 14:49:47;;;;;;;;;;;11.80;90.40;;;;;;5050305;28;20737;-68